Danburg, Georgia
Current Conditions -  °F | °C
As of 10:55 AM on Friday 28 Nov 2014 (Local Time) from KIIY Reporting Station
Clear Clear  
Wind Chill: 39°   Ceiling: Unl
Heat Index: 43°   Visibility: 10mi
Dew Point: 30°   Wind: 6mph
Humidity: 61%   Direction: 160°SSE
Pressure: 30.4"   Gusts: NA
Location:  33.8952°N, 82.6905°W
Report Text: KIIY 281555Z AUTO 16005KT 10SM CLR 06/M01 A3040 RMK AO2
Loading
Personal Weather Stations






























Interactive Weather Map New forecast layout! Learn more

10-Day Weather Forecast

Advertisements
Track Severe Weather on mobile